createdAt,value
2017-07-08T00:00:29.505Z,79.70
2017-07-08T00:02:57.105Z,79.70
2017-07-08T00:05:24.601Z,80.10
2017-07-08T00:07:52.101Z,80.10
2017-07-08T00:10:19.646Z,80.20
2017-07-08T00:12:47.193Z,80.50
2017-07-08T00:15:14.726Z,80.20
2017-07-08T00:17:42.265Z,80.60
2017-07-08T00:20:09.811Z,80.90
2017-07-08T00:22:37.352Z,81.00
2017-07-08T00:25:04.873Z,81.10
2017-07-08T00:27:33.156Z,81.30
2017-07-08T00:30:00.643Z,81.20
2017-07-08T00:32:28.162Z,81.50
2017-07-08T00:34:55.654Z,81.60
2017-07-08T00:37:23.913Z,81.60
2017-07-08T00:39:52.195Z,81.70
2017-07-08T00:42:19.857Z,81.60
2017-07-08T00:44:47.400Z,81.80
2017-07-08T00:47:14.939Z,82.20
2017-07-08T00:49:42.480Z,82.30
2017-07-08T00:52:10.022Z,82.50
2017-07-08T00:54:37.517Z,83.00
2017-07-08T00:57:05.040Z,83.10
2017-07-08T00:59:32.530Z,83.10
2017-07-08T01:02:00.783Z,83.40
2017-07-08T01:04:29.073Z,83.60
2017-07-08T01:06:56.617Z,83.50
2017-07-08T01:09:24.129Z,83.40
2017-07-08T01:11:52.630Z,84.20
2017-07-08T01:14:20.139Z,84.20
2017-07-08T01:16:48.406Z,85.10
2017-07-08T01:19:16.683Z,83.90
2017-07-08T01:21:44.189Z,83.90
2017-07-08T01:24:11.778Z,84.60
2017-07-08T01:26:39.320Z,84.90
2017-07-08T01:29:06.865Z,85.00
2017-07-08T01:31:34.639Z,85.80
2017-07-08T01:34:02.156Z,86.00
2017-07-08T01:36:29.702Z,86.90
2017-07-08T01:38:57.329Z,87.20
2017-07-08T01:41:25.608Z,87.50
2017-07-08T01:43:53.115Z,87.40
2017-07-08T01:46:21.516Z,88.00
2017-07-08T01:48:49.013Z,88.00
2017-07-08T01:51:16.526Z,88.20
2017-07-08T01:53:44.245Z,88.40
2017-07-08T01:56:11.788Z,88.40
2017-07-08T01:58:39.330Z,88.50
2017-07-08T02:01:06.826Z,89.00
2017-07-08T02:03:34.418Z,87.70
2017-07-08T02:06:01.974Z,87.80
2017-07-08T02:08:29.508Z,87.50
2017-07-08T02:10:57.050Z,87.20
2017-07-08T02:13:24.611Z,87.00
2017-07-08T02:15:52.105Z,87.10
2017-07-08T02:18:20.391Z,88.00
2017-07-08T02:20:47.898Z,87.30
2017-07-08T02:23:16.203Z,87.30
2017-07-08T02:25:43.745Z,87.20
2017-07-08T02:28:11.290Z,87.60
2017-07-08T02:30:38.831Z,87.30
2017-07-08T02:33:06.577Z,87.40
2017-07-08T02:35:34.121Z,87.00
2017-07-08T02:38:01.680Z,88.00
2017-07-08T02:40:29.177Z,88.70
2017-07-08T02:42:58.005Z,88.40
2017-07-08T02:45:27.856Z,88.50
2017-07-08T02:47:55.763Z,87.80
2017-07-08T02:50:23.265Z,88.00
2017-07-08T02:52:50.822Z,88.10
2017-07-08T02:55:18.317Z,89.60
2017-07-08T02:57:45.867Z,89.80
2017-07-08T03:00:13.449Z,88.90
2017-07-08T03:02:40.936Z,89.00
2017-07-08T03:05:08.533Z,88.80
2017-07-08T03:07:36.077Z,89.00
2017-07-08T03:10:03.624Z,88.70
2017-07-08T03:12:31.137Z,88.70
2017-07-08T03:14:59.432Z,88.10
2017-07-08T03:17:26.969Z,88.10
2017-07-08T03:19:54.734Z,88.20
2017-07-08T03:22:22.248Z,88.90
2017-07-08T03:24:49.826Z,89.20
2017-07-08T03:27:17.341Z,89.70
2017-07-08T03:29:44.896Z,89.20
2017-07-08T03:32:12.441Z,88.70
2017-07-08T03:34:39.985Z,88.90
2017-07-08T03:37:07.625Z,88.60
2017-07-08T03:39:35.145Z,89.50
2017-07-08T03:42:03.400Z,88.80
2017-07-08T03:44:31.685Z,89.30
2017-07-08T03:46:59.229Z,88.70
2017-07-08T03:49:26.722Z,88.60
2017-07-08T03:51:54.213Z,88.50
2017-07-08T03:54:21.768Z,88.60
2017-07-08T03:56:49.326Z,88.80
2017-07-08T03:59:16.953Z,88.60
2017-07-08T04:01:44.441Z,88.70
2017-07-08T04:04:12.037Z,88.80
2017-07-08T04:06:39.586Z,88.70
2017-07-08T04:09:07.125Z,89.10
2017-07-08T04:11:34.870Z,89.10
2017-07-08T04:14:02.356Z,89.30
2017-07-08T04:16:29.858Z,89.30
2017-07-08T04:18:57.410Z,89.50
2017-07-08T04:21:24.913Z,89.50
2017-07-08T04:23:53.181Z,89.70
2017-07-08T04:26:20.759Z,89.60
2017-07-08T04:28:48.516Z,89.60
2017-07-08T04:31:16.755Z,89.70
2017-07-08T04:33:44.264Z,89.70
2017-07-08T04:36:11.773Z,89.60
2017-07-08T04:38:39.261Z,89.60
2017-07-08T04:41:07.540Z,89.20
2017-07-08T04:43:35.066Z,89.10
2017-07-08T04:46:03.316Z,88.20
2017-07-08T04:48:30.817Z,88.20
2017-07-08T04:50:58.337Z,88.00
2017-07-08T04:53:25.902Z,88.20
2017-07-08T04:55:53.431Z,88.30
2017-07-08T04:58:20.949Z,88.00
2017-07-08T05:00:49.342Z,87.50
2017-07-08T05:03:16.891Z,87.50
2017-07-08T05:05:44.416Z,87.80
2017-07-08T05:08:11.912Z,87.60
2017-07-08T05:10:39.498Z,86.70
2017-07-08T05:13:07.047Z,86.10
2017-07-08T05:15:34.585Z,86.20
2017-07-08T05:18:02.229Z,85.80
2017-07-08T05:20:29.764Z,85.20
2017-07-08T05:22:57.328Z,85.00
2017-07-08T05:25:24.861Z,85.00
2017-07-08T05:27:52.349Z,85.30
2017-07-08T05:30:19.954Z,84.40
2017-07-08T05:32:47.522Z,84.40
2017-07-08T05:35:15.020Z,83.90
2017-07-08T05:37:43.297Z,83.40
2017-07-08T05:40:10.794Z,83.30
2017-07-08T05:42:38.279Z,83.50
2017-07-08T05:45:05.944Z,82.90
2017-07-08T05:47:33.484Z,83.20
2017-07-08T05:50:00.976Z,83.30
2017-07-08T05:52:29.261Z,82.40
2017-07-08T05:54:56.773Z,82.40
2017-07-08T05:57:24.279Z,82.50
2017-07-08T05:59:51.780Z,82.10
2017-07-08T06:02:19.556Z,82.30
2017-07-08T06:04:47.054Z,82.50
2017-07-08T06:07:14.545Z,81.30
2017-07-08T06:09:42.267Z,80.30
2017-07-08T06:12:10.565Z,80.10
2017-07-08T06:14:38.054Z,79.60
2017-07-08T06:17:05.573Z,79.10
2017-07-08T06:19:33.061Z,78.70
2017-07-08T06:22:00.621Z,78.30
2017-07-08T06:24:28.113Z,78.30
2017-07-08T06:26:55.613Z,78.00
2017-07-08T06:29:23.115Z,76.90
2017-07-08T06:31:51.431Z,77.10
2017-07-08T06:34:18.944Z,77.10
2017-07-08T06:36:46.450Z,76.20
2017-07-08T06:39:14.593Z,75.60
2017-07-08T06:41:42.081Z,74.60
2017-07-08T06:44:09.571Z,74.10
2017-07-08T06:46:37.894Z,75.60
2017-07-08T06:49:05.646Z,74.60
2017-07-08T06:51:33.181Z,73.40
2017-07-08T06:54:00.666Z,72.00
2017-07-08T06:56:28.179Z,71.60
2017-07-08T06:58:55.764Z,72.60
2017-07-08T07:01:23.360Z,72.50
2017-07-08T07:03:50.860Z,72.10
2017-07-08T07:06:18.469Z,72.00
2017-07-08T07:08:46.089Z,72.00
2017-07-08T07:11:13.633Z,71.30
2017-07-08T07:13:41.128Z,70.60
2017-07-08T07:16:08.621Z,69.20
2017-07-08T07:18:36.159Z,69.30
2017-07-08T07:21:03.708Z,69.10
2017-07-08T07:23:31.246Z,67.20
2017-07-08T07:25:58.747Z,65.90
2017-07-08T07:28:26.245Z,64.10
2017-07-08T07:30:53.761Z,63.10
2017-07-08T07:33:22.032Z,60.00
2017-07-08T07:35:49.611Z,60.00
2017-07-08T07:38:17.194Z,62.00
2017-07-08T07:40:45.454Z,57.20
2017-07-08T07:43:13.705Z,55.80
2017-07-08T07:45:41.289Z,55.70
2017-07-08T07:48:08.833Z,56.90
2017-07-08T07:50:36.325Z,57.70
2017-07-08T07:53:03.817Z,57.20
2017-07-08T07:55:31.361Z,57.50
2017-07-08T07:57:58.850Z,57.30
2017-07-08T08:00:26.398Z,57.60
2017-07-08T08:02:53.894Z,58.00
2017-07-08T08:05:21.404Z,58.10
2017-07-08T08:07:49.900Z,57.10
2017-07-08T08:10:17.417Z,57.00
2017-07-08T08:12:45.735Z,55.90
2017-07-08T08:15:13.263Z,55.90
2017-07-08T08:17:40.784Z,54.90
2017-07-08T08:20:08.324Z,53.60
2017-07-08T08:22:35.816Z,52.50
2017-07-08T08:25:03.315Z,52.30
2017-07-08T08:27:30.796Z,51.90
2017-07-08T08:29:58.503Z,52.30
2017-07-08T08:32:26.071Z,52.40
2017-07-08T08:34:53.554Z,53.00
2017-07-08T08:37:21.241Z,52.80
2017-07-08T08:39:48.750Z,52.90
2017-07-08T08:42:17.758Z,54.90
2017-07-08T08:44:45.521Z,54.90
2017-07-08T08:47:13.052Z,54.40
2017-07-08T08:49:40.594Z,53.40
2017-07-08T08:52:08.117Z,54.20
2017-07-08T08:54:36.397Z,52.60
2017-07-08T08:57:03.942Z,52.50
2017-07-08T08:59:31.445Z,53.40
2017-07-08T09:01:58.921Z,51.70
2017-07-08T09:04:26.437Z,51.80
2017-07-08T09:06:53.932Z,49.40
2017-07-08T09:09:21.429Z,48.70
2017-07-08T09:11:50.268Z,48.80
2017-07-08T09:14:17.833Z,49.10
2017-07-08T09:16:45.427Z,49.00
2017-07-08T09:19:13.161Z,50.80
2017-07-08T09:21:40.653Z,49.60
2017-07-08T09:24:08.141Z,50.20
2017-07-08T09:26:36.596Z,51.10
2017-07-08T09:29:04.870Z,49.60
2017-07-08T09:31:32.417Z,49.50
2017-07-08T09:33:59.949Z,49.30
2017-07-08T09:36:27.433Z,49.70
2017-07-08T09:38:54.931Z,49.10
2017-07-08T09:41:22.445Z,48.70
2017-07-08T09:43:49.947Z,47.90
2017-07-08T09:46:19.500Z,48.40
2017-07-08T09:48:47.102Z,49.10
2017-07-08T09:51:15.496Z,49.90
2017-07-08T09:53:43.041Z,49.30
2017-07-08T09:56:11.332Z,48.00
2017-07-08T09:58:38.879Z,47.80
2017-07-08T10:01:06.358Z,48.30
2017-07-08T10:03:33.963Z,49.50
2017-07-08T10:06:01.515Z,49.60
2017-07-08T10:08:29.053Z,49.40
2017-07-08T10:10:56.669Z,48.70
2017-07-08T10:13:24.997Z,49.10
2017-07-08T10:15:52.498Z,48.50
2017-07-08T10:18:20.053Z,48.60
2017-07-08T10:20:47.755Z,47.40
2017-07-08T10:23:15.374Z,47.20
2017-07-08T10:25:42.893Z,47.30
2017-07-08T10:28:10.421Z,48.10
2017-07-08T10:30:37.906Z,48.80
2017-07-08T10:33:05.608Z,49.70
2017-07-08T10:35:33.152Z,49.10
2017-07-08T10:38:00.700Z,48.30
2017-07-08T10:40:28.278Z,48.40
2017-07-08T10:42:55.769Z,49.50
2017-07-08T10:45:24.034Z,48.90
2017-07-08T10:47:51.579Z,48.80
2017-07-08T10:50:19.088Z,48.10
2017-07-08T10:52:46.589Z,47.50
2017-07-08T10:55:14.125Z,48.30
2017-07-08T10:57:41.664Z,48.00
2017-07-08T11:00:09.177Z,48.40
2017-07-08T11:02:37.449Z,48.50
2017-07-08T11:05:05.724Z,46.40
2017-07-08T11:07:33.269Z,46.30
2017-07-08T11:10:00.806Z,46.90
2017-07-08T11:12:28.469Z,46.90
2017-07-08T11:14:55.958Z,47.10
2017-07-08T11:17:23.531Z,47.50
2017-07-08T11:19:51.205Z,48.30
2017-07-08T11:22:18.709Z,48.60
2017-07-08T11:24:46.957Z,49.50
2017-07-08T11:27:14.449Z,49.00
2017-07-08T11:29:41.981Z,50.50
2017-07-08T11:32:09.502Z,50.70
2017-07-08T11:34:38.231Z,49.90
2017-07-08T11:37:05.712Z,49.90
2017-07-08T11:39:33.998Z,50.00
2017-07-08T11:42:01.485Z,49.20
2017-07-08T11:44:28.992Z,49.10
2017-07-08T11:46:56.529Z,50.20
2017-07-08T11:49:24.140Z,49.80
2017-07-08T11:51:51.642Z,49.60
2017-07-08T11:54:19.169Z,48.10
2017-07-08T11:56:46.660Z,46.40
2017-07-08T11:59:14.884Z,43.90
2017-07-08T12:01:42.501Z,41.20
2017-07-08T12:04:09.984Z,40.60
2017-07-08T12:06:37.466Z,36.60
2017-07-08T12:09:05.854Z,38.20
2017-07-08T12:11:33.399Z,38.20
2017-07-08T12:14:00.889Z,40.50
2017-07-08T12:16:28.506Z,40.70
2017-07-08T12:18:56.029Z,41.20
2017-07-08T12:21:23.529Z,39.30
2017-07-08T12:23:51.109Z,38.00
2017-07-08T12:26:18.615Z,39.00
2017-07-08T12:28:46.104Z,35.00
2017-07-08T12:31:13.615Z,34.60
2017-07-08T12:33:41.864Z,34.20
2017-07-08T12:36:09.441Z,33.50
2017-07-08T12:38:36.933Z,33.30
2017-07-08T12:41:04.632Z,36.10
2017-07-08T12:43:32.113Z,36.00
2017-07-08T12:45:59.598Z,36.50
2017-07-08T12:48:27.971Z,36.60
2017-07-08T12:50:55.473Z,36.50
2017-07-08T12:53:22.964Z,36.60
2017-07-08T12:55:50.592Z,38.40
2017-07-08T12:58:18.849Z,41.40
2017-07-08T13:00:47.132Z,39.80
2017-07-08T13:03:14.701Z,39.80
2017-07-08T13:05:42.181Z,41.30
2017-07-08T13:08:09.761Z,39.80
2017-07-08T13:10:37.310Z,39.40
2017-07-08T13:13:04.801Z,39.50
2017-07-08T13:15:32.394Z,39.60
2017-07-08T13:18:00.134Z,38.70
2017-07-08T13:20:27.690Z,37.80
2017-07-08T13:22:55.200Z,37.70
2017-07-08T13:25:23.482Z,36.10
2017-07-08T13:27:51.018Z,36.50
2017-07-08T13:30:18.529Z,38.40
2017-07-08T13:32:46.117Z,37.30
2017-07-08T13:35:13.610Z,37.90
2017-07-08T13:37:41.333Z,40.00
2017-07-08T13:40:08.852Z,38.70
2017-07-08T13:42:36.401Z,40.70
2017-07-08T13:45:03.933Z,39.50
2017-07-08T13:47:31.413Z,38.20
2017-07-08T13:49:58.920Z,38.60
2017-07-08T13:52:26.491Z,41.00
2017-07-08T13:54:54.030Z,39.80
2017-07-08T13:57:21.760Z,39.20
2017-07-08T13:59:49.267Z,39.80
2017-07-08T14:02:17.483Z,40.00
2017-07-08T14:04:45.133Z,38.20
2017-07-08T14:07:12.613Z,34.20
2017-07-08T14:09:40.185Z,31.10
2017-07-08T14:12:07.690Z,29.30
2017-07-08T14:14:35.274Z,27.20
2017-07-08T14:17:02.757Z,27.20
2017-07-08T14:19:30.260Z,26.50
2017-07-08T14:21:57.748Z,28.90
2017-07-08T14:24:25.580Z,28.80
2017-07-08T14:26:53.794Z,27.20
2017-07-08T14:29:21.358Z,28.60
2017-07-08T14:31:48.851Z,27.90
2017-07-08T14:34:16.356Z,28.60
2017-07-08T14:36:43.850Z,30.00
2017-07-08T14:39:11.628Z,30.00
2017-07-08T14:41:39.161Z,30.30
2017-07-08T14:44:07.446Z,32.10
2017-07-08T14:46:35.191Z,32.10
2017-07-08T14:49:02.759Z,33.70
2017-07-08T14:51:30.242Z,33.90
2017-07-08T14:53:58.632Z,34.10
2017-07-08T14:56:26.281Z,34.10
2017-07-08T14:58:53.778Z,35.50
2017-07-08T15:01:21.306Z,34.70
2017-07-08T15:03:48.968Z,36.60
2017-07-08T15:06:16.468Z,36.80
2017-07-08T15:08:44.059Z,37.70
2017-07-08T15:11:12.362Z,37.30
2017-07-08T15:13:39.860Z,37.30
2017-07-08T15:16:07.340Z,38.80
2017-07-08T15:18:34.997Z,38.60
2017-07-08T15:21:02.476Z,39.10
2017-07-08T15:23:29.972Z,36.50
2017-07-08T15:25:57.521Z,36.60
2017-07-08T15:28:25.005Z,35.10
2017-07-08T15:30:52.507Z,33.70
2017-07-08T15:33:20.033Z,34.40
2017-07-08T15:35:47.523Z,34.30
2017-07-08T15:38:15.036Z,32.20
2017-07-08T15:40:42.577Z,31.90
2017-07-08T15:43:10.117Z,31.20
2017-07-08T15:45:37.657Z,30.60
2017-07-08T15:48:05.158Z,31.70
2017-07-08T15:50:32.750Z,30.40
2017-07-08T15:53:00.232Z,31.70
2017-07-08T15:55:27.790Z,31.00
2017-07-08T15:57:55.317Z,32.20
2017-07-08T16:00:22.881Z,32.80
2017-07-08T16:02:50.407Z,32.50
2017-07-08T16:05:18.017Z,33.70
2017-07-08T16:07:45.533Z,32.80
2017-07-08T16:10:13.817Z,32.20
2017-07-08T16:12:41.431Z,32.20
2017-07-08T16:15:09.926Z,31.60
2017-07-08T16:17:37.469Z,31.60
2017-07-08T16:20:04.972Z,32.20
2017-07-08T16:22:32.615Z,31.70
2017-07-08T16:25:00.202Z,32.80
2017-07-08T16:27:27.693Z,31.60
2017-07-08T16:29:55.246Z,32.00
2017-07-08T16:32:22.743Z,33.00
2017-07-08T16:34:50.289Z,32.30
2017-07-08T16:37:17.893Z,33.00
2017-07-08T16:39:46.156Z,34.70
2017-07-08T16:42:14.442Z,36.50
2017-07-08T16:44:41.963Z,36.50
2017-07-08T16:47:10.216Z,38.20
2017-07-08T16:49:38.523Z,39.10
2017-07-08T16:52:06.059Z,38.60
2017-07-08T16:54:33.588Z,39.70
2017-07-08T16:57:01.085Z,41.10
2017-07-08T16:59:28.773Z,41.70
2017-07-08T17:01:56.321Z,42.40
2017-07-08T17:04:23.871Z,43.70
2017-07-08T17:06:51.417Z,44.20
2017-07-08T17:09:18.975Z,45.00
2017-07-08T17:11:46.510Z,44.70
2017-07-08T17:14:14.245Z,45.70
2017-07-08T17:16:41.793Z,46.20
2017-07-08T17:19:09.330Z,46.40
2017-07-08T17:21:36.833Z,47.10
2017-07-08T17:24:04.313Z,47.70
2017-07-08T17:26:31.973Z,47.40
2017-07-08T17:28:59.452Z,48.50
2017-07-08T17:31:26.950Z,48.30
2017-07-08T17:33:54.447Z,48.50
2017-07-08T17:36:22.725Z,48.90
2017-07-08T17:38:51.217Z,49.40
2017-07-08T17:41:18.720Z,49.30
2017-07-08T17:43:46.210Z,49.30
2017-07-08T17:46:13.746Z,49.50
2017-07-08T17:48:41.283Z,49.70
2017-07-08T17:51:09.033Z,49.30
2017-07-08T17:53:36.577Z,49.30
2017-07-08T17:56:04.061Z,49.50
2017-07-08T17:58:31.637Z,48.90
2017-07-08T18:00:59.914Z,49.60
2017-07-08T18:03:28.160Z,50.20
2017-07-08T18:05:56.493Z,50.50
2017-07-08T18:08:23.999Z,50.50
2017-07-08T18:10:51.633Z,50.00
2017-07-08T18:13:19.143Z,50.80
2017-07-08T18:15:46.930Z,50.90
2017-07-08T18:18:14.429Z,51.50
2017-07-08T18:20:41.921Z,51.40
2017-07-08T18:23:09.665Z,52.00
2017-07-08T18:25:37.213Z,51.50
2017-07-08T18:28:04.700Z,51.70
2017-07-08T18:30:34.029Z,52.00
2017-07-08T18:33:01.578Z,51.90
2017-07-08T18:35:30.361Z,51.60
2017-07-08T18:37:58.093Z,51.90
2017-07-08T18:40:25.588Z,52.50
2017-07-08T18:42:53.096Z,52.60
2017-07-08T18:45:20.617Z,53.40
2017-07-08T18:47:48.114Z,53.30
2017-07-08T18:50:15.609Z,52.60
2017-07-08T18:52:43.149Z,53.00
2017-07-08T18:55:10.802Z,53.70
2017-07-08T18:57:38.546Z,54.00
2017-07-08T19:00:06.034Z,53.80
2017-07-08T19:02:33.537Z,54.30
2017-07-08T19:05:01.688Z,53.90
2017-07-08T19:07:30.148Z,54.50
2017-07-08T19:09:57.634Z,54.90
2017-07-08T19:12:25.153Z,55.30
2017-07-08T19:14:52.788Z,55.60
2017-07-08T19:17:20.301Z,56.40
2017-07-08T19:19:48.097Z,57.10
2017-07-08T19:22:15.618Z,57.30
2017-07-08T19:24:43.126Z,57.50
2017-07-08T19:27:10.705Z,57.70
2017-07-08T19:29:38.252Z,57.90
2017-07-08T19:32:05.893Z,58.10
2017-07-08T19:34:33.437Z,58.60
2017-07-08T19:37:00.978Z,58.70
2017-07-08T19:39:28.726Z,59.20
2017-07-08T19:41:56.214Z,59.30
2017-07-08T19:44:23.826Z,59.60
2017-07-08T19:46:51.359Z,59.50
2017-07-08T19:49:18.924Z,59.60
2017-07-08T19:51:46.488Z,59.90
2017-07-08T19:54:13.994Z,60.30
2017-07-08T19:56:41.477Z,60.80
2017-07-08T19:59:09.184Z,60.80
2017-07-08T20:01:36.670Z,60.90
2017-07-08T20:04:04.165Z,60.90
2017-07-08T20:06:31.708Z,60.60
2017-07-08T20:08:59.196Z,61.40
2017-07-08T20:11:26.750Z,61.40
2017-07-08T20:13:54.354Z,62.00
2017-07-08T20:16:21.909Z,61.60
2017-07-08T20:18:49.397Z,61.30
2017-07-08T20:21:17.085Z,61.80
2017-07-08T20:23:44.638Z,61.40
2017-07-08T20:26:12.122Z,62.00
2017-07-08T20:28:39.657Z,61.60
2017-07-08T20:31:07.178Z,62.20
2017-07-08T20:33:34.654Z,61.80
2017-07-08T20:36:02.178Z,62.00
2017-07-08T20:38:29.890Z,61.30
2017-07-08T20:40:57.381Z,61.80
2017-07-08T20:43:24.881Z,61.80
2017-07-08T20:45:52.887Z,62.30
2017-07-08T20:48:20.441Z,62.80
2017-07-08T20:50:48.711Z,63.10
2017-07-08T20:53:16.275Z,63.10
2017-07-08T20:55:43.758Z,63.00
2017-07-08T20:58:11.245Z,63.70
2017-07-08T21:00:38.910Z,65.00
2017-07-08T21:03:06.530Z,64.00
2017-07-08T21:05:34.008Z,63.50
2017-07-08T21:08:01.524Z,63.70
2017-07-08T21:10:29.009Z,64.20
2017-07-08T21:12:56.549Z,64.20
2017-07-08T21:15:24.057Z,64.70
2017-07-08T21:17:51.698Z,65.30
2017-07-08T21:20:19.458Z,64.80
2017-07-08T21:22:46.989Z,65.00
2017-07-08T21:25:14.478Z,64.90
2017-07-08T21:27:42.173Z,65.30
2017-07-08T21:30:09.720Z,65.00
2017-07-08T21:32:37.215Z,64.50
2017-07-08T21:35:05.493Z,65.30
2017-07-08T21:37:33.785Z,65.00
2017-07-08T21:40:01.330Z,65.70
2017-07-08T21:42:28.873Z,65.70
2017-07-08T21:44:56.371Z,65.00
2017-07-08T21:47:23.887Z,64.80
2017-07-08T21:49:51.389Z,65.90
2017-07-08T21:52:18.901Z,65.00
2017-07-08T21:54:47.001Z,64.70
2017-07-08T21:57:14.546Z,64.80
2017-07-08T21:59:42.088Z,64.80
2017-07-08T22:02:09.834Z,64.90
2017-07-08T22:04:37.325Z,64.80
2017-07-08T22:07:04.816Z,64.80
2017-07-08T22:09:32.325Z,65.20
2017-07-08T22:11:59.805Z,65.10
2017-07-08T22:14:27.390Z,64.90
2017-07-08T22:16:54.915Z,66.60
2017-07-08T22:19:22.459Z,65.40
2017-07-08T22:21:49.973Z,64.90
2017-07-08T22:24:17.466Z,65.00
2017-07-08T22:26:44.953Z,65.00
2017-07-08T22:29:12.500Z,64.70
2017-07-08T22:31:40.025Z,64.30
2017-07-08T22:34:07.521Z,64.60
2017-07-08T22:36:35.217Z,63.80
2017-07-08T22:39:02.736Z,63.60
2017-07-08T22:41:31.010Z,64.40
2017-07-08T22:43:59.278Z,62.20
2017-07-08T22:46:26.766Z,62.20
2017-07-08T22:48:54.289Z,62.90
2017-07-08T22:51:21.813Z,63.30
2017-07-08T22:53:49.354Z,63.20
2017-07-08T22:56:16.877Z,63.20
2017-07-08T22:58:45.157Z,63.60
2017-07-08T23:01:12.697Z,63.50
2017-07-08T23:03:40.246Z,63.90
2017-07-08T23:06:07.799Z,63.90
2017-07-08T23:08:35.318Z,63.80
2017-07-08T23:11:02.865Z,63.30
2017-07-08T23:13:30.397Z,62.90
2017-07-08T23:15:58.659Z,62.90
2017-07-08T23:18:26.924Z,63.30
2017-07-08T23:20:55.212Z,62.10
2017-07-08T23:23:22.696Z,62.10
2017-07-08T23:25:50.185Z,62.40
2017-07-08T23:28:17.730Z,62.40
2017-07-08T23:30:45.212Z,62.50
2017-07-08T23:33:12.694Z,63.50
2017-07-08T23:35:41.191Z,61.30
2017-07-08T23:38:08.680Z,61.80
2017-07-08T23:40:36.190Z,62.20
2017-07-08T23:43:03.808Z,62.60
2017-07-08T23:45:32.116Z,62.80
2017-07-08T23:47:59.633Z,63.10
2017-07-08T23:50:27.401Z,62.90
2017-07-08T23:52:54.917Z,62.40
2017-07-08T23:55:22.397Z,63.00
2017-07-08T23:57:50.110Z,63.30
